sensor_id;sensor_type;location;lat;lon;timestamp;pressure;altitude;pressure_sealevel;temperature
68510;BMP180;55512;50.102;19.958;2023-09-07T00:00:17;99650.00;;;18.20
68510;BMP180;55512;50.102;19.958;2023-09-07T00:02:42;99652.40;;;18.10
68510;BMP180;55512;50.102;19.958;2023-09-07T00:05:08;99651.80;;;18.00
68510;BMP180;55512;50.102;19.958;2023-09-07T00:07:35;99650.20;;;17.90
68510;BMP180;55512;50.102;19.958;2023-09-07T00:10:01;99651.80;;;17.78
68510;BMP180;55512;50.102;19.958;2023-09-07T00:12:27;99655.20;;;17.60
68510;BMP180;55512;50.102;19.958;2023-09-07T00:14:54;99650.40;;;17.50
68510;BMP180;55512;50.102;19.958;2023-09-07T00:17:20;99650.80;;;17.40
68510;BMP180;55512;50.102;19.958;2023-09-07T00:19:46;99647.00;;;17.22
68510;BMP180;55512;50.102;19.958;2023-09-07T00:22:14;99644.80;;;17.12
68510;BMP180;55512;50.102;19.958;2023-09-07T00:24:39;99645.60;;;17.00
68510;BMP180;55512;50.102;19.958;2023-09-07T00:27:05;99646.20;;;16.90
68510;BMP180;55512;50.102;19.958;2023-09-07T00:29:35;99644.80;;;16.80
68510;BMP180;55512;50.102;19.958;2023-09-07T00:32:01;99647.80;;;16.70
68510;BMP180;55512;50.102;19.958;2023-09-07T00:34:27;99650.60;;;16.60
68510;BMP180;55512;50.102;19.958;2023-09-07T00:36:52;99652.80;;;16.60
68510;BMP180;55512;50.102;19.958;2023-09-07T00:39:17;99650.40;;;16.50
68510;BMP180;55512;50.102;19.958;2023-09-07T00:41:43;99655.00;;;16.50
68510;BMP180;55512;50.102;19.958;2023-09-07T00:44:08;99647.80;;;16.40
68510;BMP180;55512;50.102;19.958;2023-09-07T00:46:34;99651.20;;;16.40
68510;BMP180;55512;50.102;19.958;2023-09-07T00:49:00;99650.00;;;16.30
68510;BMP180;55512;50.102;19.958;2023-09-07T00:51:26;99654.80;;;16.28
68510;BMP180;55512;50.102;19.958;2023-09-07T00:53:52;99653.40;;;16.20
68510;BMP180;55512;50.102;19.958;2023-09-07T00:56:18;99656.00;;;16.10
68510;BMP180;55512;50.102;19.958;2023-09-07T00:58:44;99654.20;;;16.10
68510;BMP180;55512;50.102;19.958;2023-09-07T01:01:10;99652.40;;;16.00
68510;BMP180;55512;50.102;19.958;2023-09-07T01:03:35;99652.80;;;16.00
68510;BMP180;55512;50.102;19.958;2023-09-07T01:06:08;99650.60;;;16.00
68510;BMP180;55512;50.102;19.958;2023-09-07T01:08:44;99648.80;;;15.90
68510;BMP180;55512;50.102;19.958;2023-09-07T01:11:19;99650.60;;;15.80
68510;BMP180;55512;50.102;19.958;2023-09-07T01:13:52;99651.00;;;15.72
68510;BMP180;55512;50.102;19.958;2023-09-07T01:16:20;99652.60;;;15.70
68510;BMP180;55512;50.102;19.958;2023-09-07T01:18:46;99647.20;;;15.64
68510;BMP180;55512;50.102;19.958;2023-09-07T01:21:13;99646.80;;;15.60
68510;BMP180;55512;50.102;19.958;2023-09-07T01:23:42;99646.80;;;15.58
68510;BMP180;55512;50.102;19.958;2023-09-07T01:26:09;99646.80;;;15.50
68510;BMP180;55512;50.102;19.958;2023-09-07T01:28:35;99645.00;;;15.40
68510;BMP180;55512;50.102;19.958;2023-09-07T01:31:02;99645.20;;;15.30
68510;BMP180;55512;50.102;19.958;2023-09-07T01:33:28;99643.60;;;15.28
68510;BMP180;55512;50.102;19.958;2023-09-07T01:35:53;99640.80;;;15.20
68510;BMP180;55512;50.102;19.958;2023-09-07T01:38:19;99640.40;;;15.10
68510;BMP180;55512;50.102;19.958;2023-09-07T01:40:44;99638.00;;;15.10
68510;BMP180;55512;50.102;19.958;2023-09-07T01:43:10;99639.00;;;15.10
68510;BMP180;55512;50.102;19.958;2023-09-07T01:45:35;99639.00;;;15.06
68510;BMP180;55512;50.102;19.958;2023-09-07T01:48:02;99632.80;;;15.00
68510;BMP180;55512;50.102;19.958;2023-09-07T01:50:28;99636.20;;;14.96
68510;BMP180;55512;50.102;19.958;2023-09-07T01:52:54;99636.00;;;14.90
68510;BMP180;55512;50.102;19.958;2023-09-07T01:55:19;99638.00;;;14.90
68510;BMP180;55512;50.102;19.958;2023-09-07T01:57:45;99637.80;;;14.90
68510;BMP180;55512;50.102;19.958;2023-09-07T02:00:12;99642.20;;;14.90
68510;BMP180;55512;50.102;19.958;2023-09-07T02:02:38;99640.80;;;14.90
68510;BMP180;55512;50.102;19.958;2023-09-07T02:05:04;99644.20;;;14.88
68510;BMP180;55512;50.102;19.958;2023-09-07T02:07:29;99639.60;;;14.82
68510;BMP180;55512;50.102;19.958;2023-09-07T02:09:55;99640.40;;;14.80
68510;BMP180;55512;50.102;19.958;2023-09-07T02:12:20;99639.60;;;14.80
68510;BMP180;55512;50.102;19.958;2023-09-07T02:14:46;99642.40;;;14.82
68510;BMP180;55512;50.102;19.958;2023-09-07T02:17:11;99635.60;;;14.82
68510;BMP180;55512;50.102;19.958;2023-09-07T02:19:43;99637.00;;;14.82
68510;BMP180;55512;50.102;19.958;2023-09-07T02:22:08;99640.60;;;14.80
68510;BMP180;55512;50.102;19.958;2023-09-07T02:24:34;99633.60;;;14.80
68510;BMP180;55512;50.102;19.958;2023-09-07T02:27:00;99633.60;;;14.74
68510;BMP180;55512;50.102;19.958;2023-09-07T02:29:25;99634.80;;;14.70
68510;BMP180;55512;50.102;19.958;2023-09-07T02:31:50;99632.20;;;14.70
68510;BMP180;55512;50.102;19.958;2023-09-07T02:34:16;99627.00;;;14.60
68510;BMP180;55512;50.102;19.958;2023-09-07T02:36:41;99625.40;;;14.60
68510;BMP180;55512;50.102;19.958;2023-09-07T02:39:07;99625.80;;;14.60
68510;BMP180;55512;50.102;19.958;2023-09-07T02:41:34;99622.60;;;14.50
68510;BMP180;55512;50.102;19.958;2023-09-07T02:43:59;99623.60;;;14.50
68510;BMP180;55512;50.102;19.958;2023-09-07T02:46:25;99629.20;;;14.50
68510;BMP180;55512;50.102;19.958;2023-09-07T02:48:50;99630.60;;;14.40
68510;BMP180;55512;50.102;19.958;2023-09-07T02:51:15;99625.80;;;14.40
68510;BMP180;55512;50.102;19.958;2023-09-07T02:53:42;99629.40;;;14.38
68510;BMP180;55512;50.102;19.958;2023-09-07T02:56:08;99628.20;;;14.30
68510;BMP180;55512;50.102;19.958;2023-09-07T02:58:35;99630.00;;;14.28
68510;BMP180;55512;50.102;19.958;2023-09-07T03:01:06;99631.40;;;14.20
68510;BMP180;55512;50.102;19.958;2023-09-07T03:03:34;99630.40;;;14.20
68510;BMP180;55512;50.102;19.958;2023-09-07T03:06:08;99630.40;;;14.10
68510;BMP180;55512;50.102;19.958;2023-09-07T03:08:34;99629.80;;;14.10
68510;BMP180;55512;50.102;19.958;2023-09-07T03:11:04;99622.20;;;14.10
68510;BMP180;55512;50.102;19.958;2023-09-07T03:13:30;99627.40;;;14.06
68510;BMP180;55512;50.102;19.958;2023-09-07T03:15:56;99626.80;;;14.00
68510;BMP180;55512;50.102;19.958;2023-09-07T03:18:21;99625.40;;;14.00
68510;BMP180;55512;50.102;19.958;2023-09-07T03:20:47;99626.20;;;14.00
68510;BMP180;55512;50.102;19.958;2023-09-07T03:23:12;99628.20;;;14.00
68510;BMP180;55512;50.102;19.958;2023-09-07T03:25:38;99626.20;;;14.00
68510;BMP180;55512;50.102;19.958;2023-09-07T03:28:04;99630.60;;;14.00
68510;BMP180;55512;50.102;19.958;2023-09-07T03:30:29;99630.60;;;13.96
68510;BMP180;55512;50.102;19.958;2023-09-07T03:32:55;99632.00;;;13.96
68510;BMP180;55512;50.102;19.958;2023-09-07T03:35:21;99626.40;;;13.90
68510;BMP180;55512;50.102;19.958;2023-09-07T03:37:46;99627.40;;;13.90
68510;BMP180;55512;50.102;19.958;2023-09-07T03:40:12;99629.80;;;13.84
68510;BMP180;55512;50.102;19.958;2023-09-07T03:42:38;99622.80;;;13.82
68510;BMP180;55512;50.102;19.958;2023-09-07T03:45:05;99625.60;;;13.80
68510;BMP180;55512;50.102;19.958;2023-09-07T03:47:31;99628.20;;;13.80
68510;BMP180;55512;50.102;19.958;2023-09-07T03:49:59;99624.80;;;13.80
68510;BMP180;55512;50.102;19.958;2023-09-07T03:52:26;99629.20;;;13.80
68510;BMP180;55512;50.102;19.958;2023-09-07T03:54:54;99628.80;;;13.80
68510;BMP180;55512;50.102;19.958;2023-09-07T03:57:25;99633.80;;;13.80
68510;BMP180;55512;50.102;19.958;2023-09-07T03:59:50;99631.00;;;13.70
68510;BMP180;55512;50.102;19.958;2023-09-07T04:02:16;99630.60;;;13.70
68510;BMP180;55512;50.102;19.958;2023-09-07T04:04:43;99630.60;;;13.70
68510;BMP180;55512;50.102;19.958;2023-09-07T04:07:12;99630.80;;;13.70
68510;BMP180;55512;50.102;19.958;2023-09-07T04:09:38;99633.20;;;13.64
68510;BMP180;55512;50.102;19.958;2023-09-07T04:12:04;99639.20;;;13.60
68510;BMP180;55512;50.102;19.958;2023-09-07T04:14:29;99641.80;;;13.60
68510;BMP180;55512;50.102;19.958;2023-09-07T04:16:55;99640.20;;;13.62
68510;BMP180;55512;50.102;19.958;2023-09-07T04:19:21;99644.60;;;13.60
68510;BMP180;55512;50.102;19.958;2023-09-07T04:21:46;99645.40;;;13.60
68510;BMP180;55512;50.102;19.958;2023-09-07T04:24:11;99652.60;;;13.60
68510;BMP180;55512;50.102;19.958;2023-09-07T04:26:37;99653.00;;;13.52
68510;BMP180;55512;50.102;19.958;2023-09-07T04:29:03;99654.00;;;13.50
68510;BMP180;55512;50.102;19.958;2023-09-07T04:31:28;99649.40;;;13.50
68510;BMP180;55512;50.102;19.958;2023-09-07T04:33:54;99653.60;;;13.50
68510;BMP180;55512;50.102;19.958;2023-09-07T04:36:19;99652.00;;;13.50
68510;BMP180;55512;50.102;19.958;2023-09-07T04:38:45;99654.20;;;13.50
68510;BMP180;55512;50.102;19.958;2023-09-07T04:41:12;99656.40;;;13.50
68510;BMP180;55512;50.102;19.958;2023-09-07T04:43:40;99657.20;;;13.54
68510;BMP180;55512;50.102;19.958;2023-09-07T04:46:08;99661.60;;;13.60
68510;BMP180;55512;50.102;19.958;2023-09-07T04:48:34;99660.40;;;13.62
68510;BMP180;55512;50.102;19.958;2023-09-07T04:51:01;99662.40;;;13.70
68510;BMP180;55512;50.102;19.958;2023-09-07T04:53:33;99667.60;;;13.80
68510;BMP180;55512;50.102;19.958;2023-09-07T04:56:01;99668.60;;;13.80
68510;BMP180;55512;50.102;19.958;2023-09-07T04:58:27;99665.20;;;13.80
68510;BMP180;55512;50.102;19.958;2023-09-07T05:01:05;99668.80;;;13.90
68510;BMP180;55512;50.102;19.958;2023-09-07T05:03:31;99673.60;;;13.90
68510;BMP180;55512;50.102;19.958;2023-09-07T05:05:57;99668.80;;;14.00
68510;BMP180;55512;50.102;19.958;2023-09-07T05:08:23;99676.40;;;14.00
68510;BMP180;55512;50.102;19.958;2023-09-07T05:10:56;99673.60;;;14.10
68510;BMP180;55512;50.102;19.958;2023-09-07T05:13:23;99672.00;;;14.20
68510;BMP180;55512;50.102;19.958;2023-09-07T05:15:49;99672.20;;;14.20
68510;BMP180;55512;50.102;19.958;2023-09-07T05:18:15;99677.40;;;14.30
68510;BMP180;55512;50.102;19.958;2023-09-07T05:20:40;99674.00;;;14.30
68510;BMP180;55512;50.102;19.958;2023-09-07T05:23:06;99675.60;;;14.40
68510;BMP180;55512;50.102;19.958;2023-09-07T05:25:31;99677.60;;;14.50
68510;BMP180;55512;50.102;19.958;2023-09-07T05:27:57;99680.80;;;14.60
68510;BMP180;55512;50.102;19.958;2023-09-07T05:30:23;99683.80;;;14.60
68510;BMP180;55512;50.102;19.958;2023-09-07T05:32:48;99684.60;;;14.70
68510;BMP180;55512;50.102;19.958;2023-09-07T05:35:14;99687.40;;;14.80
68510;BMP180;55512;50.102;19.958;2023-09-07T05:37:41;99691.20;;;14.90
68510;BMP180;55512;50.102;19.958;2023-09-07T05:40:08;99692.20;;;15.00
68510;BMP180;55512;50.102;19.958;2023-09-07T05:42:33;99694.20;;;15.10
68510;BMP180;55512;50.102;19.958;2023-09-07T05:44:59;99696.40;;;15.20
68510;BMP180;55512;50.102;19.958;2023-09-07T05:47:24;99695.40;;;15.30
68510;BMP180;55512;50.102;19.958;2023-09-07T05:49:51;99695.40;;;15.40
68510;BMP180;55512;50.102;19.958;2023-09-07T05:52:17;99699.80;;;15.50
68510;BMP180;55512;50.102;19.958;2023-09-07T05:54:42;99704.00;;;15.60
68510;BMP180;55512;50.102;19.958;2023-09-07T05:57:08;99696.40;;;15.68
68510;BMP180;55512;50.102;19.958;2023-09-07T05:59:33;99697.60;;;15.74
68510;BMP180;55512;50.102;19.958;2023-09-07T06:01:58;99695.40;;;15.84
68510;BMP180;55512;50.102;19.958;2023-09-07T06:04:24;99694.60;;;15.90
68510;BMP180;55512;50.102;19.958;2023-09-07T06:06:49;99696.60;;;16.00
68510;BMP180;55512;50.102;19.958;2023-09-07T06:09:16;99699.20;;;16.10
68510;BMP180;55512;50.102;19.958;2023-09-07T06:11:41;99703.20;;;16.20
68510;BMP180;55512;50.102;19.958;2023-09-07T06:14:06;99710.00;;;16.30
68510;BMP180;55512;50.102;19.958;2023-09-07T06:16:32;99707.40;;;16.38
68510;BMP180;55512;50.102;19.958;2023-09-07T06:18:57;99705.60;;;16.40
68510;BMP180;55512;50.102;19.958;2023-09-07T06:21:23;99708.00;;;16.50
68510;BMP180;55512;50.102;19.958;2023-09-07T06:23:49;99712.20;;;16.60
68510;BMP180;55512;50.102;19.958;2023-09-07T06:26:15;99708.80;;;16.60
68510;BMP180;55512;50.102;19.958;2023-09-07T06:28:43;99714.00;;;16.70
68510;BMP180;55512;50.102;19.958;2023-09-07T06:31:08;99713.40;;;16.66
68510;BMP180;55512;50.102;19.958;2023-09-07T06:33:34;99714.00;;;16.80
68510;BMP180;55512;50.102;19.958;2023-09-07T06:36:00;99712.20;;;16.90
68510;BMP180;55512;50.102;19.958;2023-09-07T06:38:27;99715.00;;;16.96
68510;BMP180;55512;50.102;19.958;2023-09-07T06:40:53;99715.40;;;16.92
68510;BMP180;55512;50.102;19.958;2023-09-07T06:43:18;99712.20;;;17.00
68510;BMP180;55512;50.102;19.958;2023-09-07T06:45:44;99714.40;;;17.00
68510;BMP180;55512;50.102;19.958;2023-09-07T06:48:10;99718.00;;;17.10
68510;BMP180;55512;50.102;19.958;2023-09-07T06:50:35;99719.60;;;17.12
68510;BMP180;55512;50.102;19.958;2023-09-07T06:53:01;99726.40;;;17.20
68510;BMP180;55512;50.102;19.958;2023-09-07T06:55:28;99729.80;;;17.30
68510;BMP180;55512;50.102;19.958;2023-09-07T06:57:54;99730.00;;;17.40
68510;BMP180;55512;50.102;19.958;2023-09-07T07:00:21;99735.20;;;17.60
68510;BMP180;55512;50.102;19.958;2023-09-07T07:02:46;99737.80;;;17.50
68510;BMP180;55512;50.102;19.958;2023-09-07T07:05:12;99740.00;;;17.60
68510;BMP180;55512;50.102;19.958;2023-09-07T07:07:38;99741.60;;;17.70
68510;BMP180;55512;50.102;19.958;2023-09-07T07:10:05;99744.80;;;17.80
68510;BMP180;55512;50.102;19.958;2023-09-07T07:12:31;99749.00;;;17.80
68510;BMP180;55512;50.102;19.958;2023-09-07T07:15:00;99751.80;;;17.90
68510;BMP180;55512;50.102;19.958;2023-09-07T07:17:26;99751.00;;;17.96
68510;BMP180;55512;50.102;19.958;2023-09-07T07:19:51;99752.80;;;18.02
68510;BMP180;55512;50.102;19.958;2023-09-07T07:22:17;99752.40;;;18.10
68510;BMP180;55512;50.102;19.958;2023-09-07T07:24:43;99751.60;;;18.20
68510;BMP180;55512;50.102;19.958;2023-09-07T07:27:08;99753.40;;;18.30
68510;BMP180;55512;50.102;19.958;2023-09-07T07:29:36;99750.60;;;18.38
68510;BMP180;55512;50.102;19.958;2023-09-07T07:32:03;99746.60;;;18.40
68510;BMP180;55512;50.102;19.958;2023-09-07T07:34:29;99749.20;;;18.50
68510;BMP180;55512;50.102;19.958;2023-09-07T07:36:55;99749.40;;;18.60
68510;BMP180;55512;50.102;19.958;2023-09-07T07:39:20;99751.60;;;18.70
68510;BMP180;55512;50.102;19.958;2023-09-07T07:41:46;99746.40;;;18.72
68510;BMP180;55512;50.102;19.958;2023-09-07T07:44:12;99750.60;;;18.80
68510;BMP180;55512;50.102;19.958;2023-09-07T07:46:37;99749.00;;;18.90
68510;BMP180;55512;50.102;19.958;2023-09-07T07:49:02;99749.60;;;19.00
68510;BMP180;55512;50.102;19.958;2023-09-07T07:51:28;99750.40;;;19.10
68510;BMP180;55512;50.102;19.958;2023-09-07T07:53:55;99749.40;;;19.20
68510;BMP180;55512;50.102;19.958;2023-09-07T07:56:24;99748.60;;;19.22
68510;BMP180;55512;50.102;19.958;2023-09-07T07:58:49;99750.40;;;19.30
68510;BMP180;55512;50.102;19.958;2023-09-07T08:01:19;99750.20;;;19.40
68510;BMP180;55512;50.102;19.958;2023-09-07T08:03:48;99750.20;;;19.50
68510;BMP180;55512;50.102;19.958;2023-09-07T08:06:14;99749.20;;;19.58
68510;BMP180;55512;50.102;19.958;2023-09-07T08:08:40;99747.80;;;19.68
68510;BMP180;55512;50.102;19.958;2023-09-07T08:11:05;99752.60;;;19.72
68510;BMP180;55512;50.102;19.958;2023-09-07T08:13:35;99748.80;;;19.80
68510;BMP180;55512;50.102;19.958;2023-09-07T08:16:04;99746.60;;;19.90
68510;BMP180;55512;50.102;19.958;2023-09-07T08:18:34;99751.80;;;20.00
68510;BMP180;55512;50.102;19.958;2023-09-07T08:21:00;99747.40;;;20.10
68510;BMP180;55512;50.102;19.958;2023-09-07T08:23:25;99746.40;;;20.10
68510;BMP180;55512;50.102;19.958;2023-09-07T08:25:52;99747.80;;;20.20
68510;BMP180;55512;50.102;19.958;2023-09-07T08:28:18;99751.40;;;20.30
68510;BMP180;55512;50.102;19.958;2023-09-07T08:30:44;99748.00;;;20.32
68510;BMP180;55512;50.102;19.958;2023-09-07T08:33:10;99745.80;;;20.40
68510;BMP180;55512;50.102;19.958;2023-09-07T08:35:35;99748.20;;;20.50
68510;BMP180;55512;50.102;19.958;2023-09-07T08:38:03;99750.80;;;20.60
68510;BMP180;55512;50.102;19.958;2023-09-07T08:40:33;99748.20;;;20.64
68510;BMP180;55512;50.102;19.958;2023-09-07T08:43:03;99748.40;;;20.70
68510;BMP180;55512;50.102;19.958;2023-09-07T08:45:31;99749.60;;;20.80
68510;BMP180;55512;50.102;19.958;2023-09-07T08:48:07;99750.40;;;20.90
68510;BMP180;55512;50.102;19.958;2023-09-07T08:50:33;99755.60;;;20.98
68510;BMP180;55512;50.102;19.958;2023-09-07T08:53:03;99751.20;;;21.00
68510;BMP180;55512;50.102;19.958;2023-09-07T08:55:28;99753.40;;;21.10
68510;BMP180;55512;50.102;19.958;2023-09-07T08:57:54;99753.60;;;21.20
68510;BMP180;55512;50.102;19.958;2023-09-07T09:00:19;99754.80;;;21.20
68510;BMP180;55512;50.102;19.958;2023-09-07T09:02:48;99756.20;;;21.30
68510;BMP180;55512;50.102;19.958;2023-09-07T09:05:15;99753.40;;;21.40
68510;BMP180;55512;50.102;19.958;2023-09-07T09:07:41;99752.40;;;21.44
68510;BMP180;55512;50.102;19.958;2023-09-07T09:10:08;99753.60;;;21.50
68510;BMP180;55512;50.102;19.958;2023-09-07T09:12:34;99751.40;;;21.60
68510;BMP180;55512;50.102;19.958;2023-09-07T09:15:01;99756.60;;;21.70
68510;BMP180;55512;50.102;19.958;2023-09-07T09:17:28;99750.60;;;21.72
68510;BMP180;55512;50.102;19.958;2023-09-07T09:19:54;99755.40;;;21.80
68510;BMP180;55512;50.102;19.958;2023-09-07T09:22:19;99752.80;;;21.90
68510;BMP180;55512;50.102;19.958;2023-09-07T09:24:48;99749.00;;;22.00
68510;BMP180;55512;50.102;19.958;2023-09-07T09:27:13;99746.80;;;22.00
68510;BMP180;55512;50.102;19.958;2023-09-07T09:29:40;99748.80;;;22.10
68510;BMP180;55512;50.102;19.958;2023-09-07T09:32:07;99753.00;;;22.20
68510;BMP180;55512;50.102;19.958;2023-09-07T09:34:37;99749.20;;;22.30
68510;BMP180;55512;50.102;19.958;2023-09-07T09:37:04;99748.20;;;22.30
68510;BMP180;55512;50.102;19.958;2023-09-07T09:39:30;99749.00;;;22.40
68510;BMP180;55512;50.102;19.958;2023-09-07T09:41:56;99752.00;;;22.46
68510;BMP180;55512;50.102;19.958;2023-09-07T09:44:23;99745.80;;;22.50
68510;BMP180;55512;50.102;19.958;2023-09-07T09:46:53;99749.80;;;22.60
68510;BMP180;55512;50.102;19.958;2023-09-07T09:49:22;99746.80;;;22.66
68510;BMP180;55512;50.102;19.958;2023-09-07T09:51:51;99748.60;;;22.80
68510;BMP180;55512;50.102;19.958;2023-09-07T09:54:17;99747.60;;;22.80
68510;BMP180;55512;50.102;19.958;2023-09-07T09:56:43;99745.00;;;22.96
68510;BMP180;55512;50.102;19.958;2023-09-07T09:59:11;99742.00;;;22.90
68510;BMP180;55512;50.102;19.958;2023-09-07T10:01:43;99742.20;;;23.00
68510;BMP180;55512;50.102;19.958;2023-09-07T10:04:12;99749.20;;;23.08
68510;BMP180;55512;50.102;19.958;2023-09-07T10:06:38;99745.80;;;23.10
68510;BMP180;55512;50.102;19.958;2023-09-07T10:09:06;99747.80;;;23.20
68510;BMP180;55512;50.102;19.958;2023-09-07T10:11:34;99741.60;;;23.30
68510;BMP180;55512;50.102;19.958;2023-09-07T10:14:02;99741.80;;;23.30
68510;BMP180;55512;50.102;19.958;2023-09-07T10:16:51;99746.40;;;23.40
68510;BMP180;55512;50.102;19.958;2023-09-07T10:19:22;99750.60;;;23.50
68510;BMP180;55512;50.102;19.958;2023-09-07T10:21:51;99746.60;;;23.50
68510;BMP180;55512;50.102;19.958;2023-09-07T10:24:33;99745.80;;;23.60
68510;BMP180;55512;50.102;19.958;2023-09-07T10:27:09;99744.20;;;23.70
68510;BMP180;55512;50.102;19.958;2023-09-07T10:29:45;99742.20;;;23.70
68510;BMP180;55512;50.102;19.958;2023-09-07T10:32:11;99736.20;;;23.80
68510;BMP180;55512;50.102;19.958;2023-09-07T10:34:40;99738.20;;;23.90
68510;BMP180;55512;50.102;19.958;2023-09-07T10:37:12;99735.40;;;24.00
68510;BMP180;55512;50.102;19.958;2023-09-07T10:39:40;99737.80;;;24.00
68510;BMP180;55512;50.102;19.958;2023-09-07T10:42:08;99740.40;;;24.10
68510;BMP180;55512;50.102;19.958;2023-09-07T10:44:34;99738.20;;;24.10
68510;BMP180;55512;50.102;19.958;2023-09-07T10:47:00;99735.20;;;24.16
68510;BMP180;55512;50.102;19.958;2023-09-07T10:49:25;99729.80;;;24.20
68510;BMP180;55512;50.102;19.958;2023-09-07T10:51:51;99731.80;;;24.22
68510;BMP180;55512;50.102;19.958;2023-09-07T10:54:21;99730.20;;;24.30
68510;BMP180;55512;50.102;19.958;2023-09-07T10:56:48;99727.60;;;24.40
68510;BMP180;55512;50.102;19.958;2023-09-07T11:05:14;99728.60;;;24.52
68510;BMP180;55512;50.102;19.958;2023-09-07T11:07:44;99728.20;;;24.60
68510;BMP180;55512;50.102;19.958;2023-09-07T11:16:08;99723.60;;;24.80
68510;BMP180;55512;50.102;19.958;2023-09-07T11:18:34;99721.40;;;24.80
68510;BMP180;55512;50.102;19.958;2023-09-07T11:21:03;99718.40;;;24.88
68510;BMP180;55512;50.102;19.958;2023-09-07T11:23:31;99724.40;;;24.90
68510;BMP180;55512;50.102;19.958;2023-09-07T11:26:04;99727.60;;;25.00
68510;BMP180;55512;50.102;19.958;2023-09-07T11:28:31;99722.60;;;25.00
68510;BMP180;55512;50.102;19.958;2023-09-07T11:36:51;99718.80;;;25.20
68510;BMP180;55512;50.102;19.958;2023-09-07T11:39:16;99719.40;;;25.20
68510;BMP180;55512;50.102;19.958;2023-09-07T11:41:44;99713.80;;;25.30
68510;BMP180;55512;50.102;19.958;2023-09-07T11:44:11;99719.20;;;25.32
68510;BMP180;55512;50.102;19.958;2023-09-07T11:46:37;99712.00;;;25.40
68510;BMP180;55512;50.102;19.958;2023-09-07T11:49:03;99713.00;;;25.50
68510;BMP180;55512;50.102;19.958;2023-09-07T11:51:30;99708.80;;;25.50
68510;BMP180;55512;50.102;19.958;2023-09-07T11:53:58;99708.20;;;25.60
68510;BMP180;55512;50.102;19.958;2023-09-07T11:56:31;99713.60;;;25.70
68510;BMP180;55512;50.102;19.958;2023-09-07T11:58:57;99709.80;;;25.80
68510;BMP180;55512;50.102;19.958;2023-09-07T12:01:23;99702.40;;;25.80
68510;BMP180;55512;50.102;19.958;2023-09-07T12:03:48;99709.20;;;25.90
68510;BMP180;55512;50.102;19.958;2023-09-07T12:06:14;99710.40;;;25.96
68510;BMP180;55512;50.102;19.958;2023-09-07T12:08:42;99716.40;;;26.00
68510;BMP180;55512;50.102;19.958;2023-09-07T12:11:24;99709.40;;;26.10
68510;BMP180;55512;50.102;19.958;2023-09-07T12:13:49;99703.60;;;26.10
68510;BMP180;55512;50.102;19.958;2023-09-07T12:16:17;99702.20;;;26.20
68510;BMP180;55512;50.102;19.958;2023-09-07T12:18:42;99697.60;;;26.30
68510;BMP180;55512;50.102;19.958;2023-09-07T12:21:08;99705.80;;;26.40
68510;BMP180;55512;50.102;19.958;2023-09-07T12:23:33;99705.00;;;26.50
68510;BMP180;55512;50.102;19.958;2023-09-07T12:26:01;99702.00;;;26.58
68510;BMP180;55512;50.102;19.958;2023-09-07T12:28:30;99700.00;;;26.70
68510;BMP180;55512;50.102;19.958;2023-09-07T12:30:57;99701.00;;;26.80
68510;BMP180;55512;50.102;19.958;2023-09-07T12:33:24;99698.80;;;26.80
68510;BMP180;55512;50.102;19.958;2023-09-07T12:35:50;99695.60;;;26.90
68510;BMP180;55512;50.102;19.958;2023-09-07T12:38:16;99696.60;;;27.00
68510;BMP180;55512;50.102;19.958;2023-09-07T12:40:44;99699.20;;;27.12
68510;BMP180;55512;50.102;19.958;2023-09-07T12:43:10;99693.80;;;27.30
68510;BMP180;55512;50.102;19.958;2023-09-07T12:45:35;99692.20;;;27.40
68510;BMP180;55512;50.102;19.958;2023-09-07T12:48:01;99693.60;;;27.50
68510;BMP180;55512;50.102;19.958;2023-09-07T12:50:27;99693.20;;;27.60
68510;BMP180;55512;50.102;19.958;2023-09-07T12:52:53;99694.20;;;27.68
68510;BMP180;55512;50.102;19.958;2023-09-07T12:55:20;99691.60;;;27.70
68510;BMP180;55512;50.102;19.958;2023-09-07T12:57:46;99689.00;;;27.70
68510;BMP180;55512;50.102;19.958;2023-09-07T13:00:12;99683.80;;;27.70
68510;BMP180;55512;50.102;19.958;2023-09-07T13:02:38;99683.20;;;27.80
68510;BMP180;55512;50.102;19.958;2023-09-07T13:05:04;99687.60;;;27.90
68510;BMP180;55512;50.102;19.958;2023-09-07T13:07:38;99681.20;;;28.06
68510;BMP180;55512;50.102;19.958;2023-09-07T13:10:05;99677.20;;;28.20
68510;BMP180;55512;50.102;19.958;2023-09-07T13:12:33;99673.40;;;28.20
68510;BMP180;55512;50.102;19.958;2023-09-07T13:14:59;99681.20;;;28.30
68510;BMP180;55512;50.102;19.958;2023-09-07T13:17:24;99674.80;;;28.40
68510;BMP180;55512;50.102;19.958;2023-09-07T13:19:50;99672.00;;;28.50
68510;BMP180;55512;50.102;19.958;2023-09-07T13:22:17;99669.80;;;28.60
68510;BMP180;55512;50.102;19.958;2023-09-07T13:24:42;99671.80;;;28.70
68510;BMP180;55512;50.102;19.958;2023-09-07T13:27:08;99671.60;;;28.80
68510;BMP180;55512;50.102;19.958;2023-09-07T13:29:35;99671.80;;;28.90
68510;BMP180;55512;50.102;19.958;2023-09-07T13:32:02;99669.20;;;29.10
68510;BMP180;55512;50.102;19.958;2023-09-07T13:34:28;99675.40;;;29.20
68510;BMP180;55512;50.102;19.958;2023-09-07T13:36:54;99675.40;;;29.40
68510;BMP180;55512;50.102;19.958;2023-09-07T13:39:21;99674.20;;;29.40
68510;BMP180;55512;50.102;19.958;2023-09-07T13:41:47;99668.80;;;29.40
68510;BMP180;55512;50.102;19.958;2023-09-07T13:44:14;99664.60;;;29.50
68510;BMP180;55512;50.102;19.958;2023-09-07T13:46:40;99669.80;;;29.60
68510;BMP180;55512;50.102;19.958;2023-09-07T13:49:05;99674.20;;;29.70
68510;BMP180;55512;50.102;19.958;2023-09-07T13:51:31;99667.80;;;29.70
68510;BMP180;55512;50.102;19.958;2023-09-07T13:54:07;99665.80;;;29.78
68510;BMP180;55512;50.102;19.958;2023-09-07T13:56:33;99664.80;;;29.98
68510;BMP180;55512;50.102;19.958;2023-09-07T13:58:59;99663.60;;;30.20
68510;BMP180;55512;50.102;19.958;2023-09-07T14:01:25;99659.60;;;30.30
68510;BMP180;55512;50.102;19.958;2023-09-07T14:03:52;99663.60;;;30.40
68510;BMP180;55512;50.102;19.958;2023-09-07T14:06:17;99660.00;;;30.60
68510;BMP180;55512;50.102;19.958;2023-09-07T14:08:45;99661.40;;;31.04
68510;BMP180;55512;50.102;19.958;2023-09-07T14:11:11;99662.20;;;31.74